עמוד ראשי
METAR-TAF:

שדות תעופה :

סלוניקי, יוון

נמל התעופה הבינלאומי סלוניקי מקדוניה

קו רוחב: 40-31N, קו אורך: 022-58E, גובה: 8מטר

תצפית מזג אוויר נוכחית

הדו"ח נערך לפני 14דקות, בשעה 18:20 UTC
רוח 5קשר מכיוון מזרח/דרום-מזרח
טמפרטורת 24 צלסיוס
לחות 41%
לחץ 1017 hPa
ראות 10 קילומטר או יותר
ללא עננים שבסיסם נמוך מ 5000 רגל או קומולונימבוס

METAR: LGTS 261820Z 11005KT CAVOK 24/10 Q1017 NOSIG

זמן: 21:34 (18:34 UTC)

תחזית

הדו"ח נערך לפני 1 שעות ו 34דקות, בשעה 17:00 UTC
תחזית בתוקף מ 26 ב 18 UTC עד 27 ב 18 UTC
רוח 15קשר מכיוון דרום
ראות 10 קילומטר או יותר
מעט עננים בגובה 2500רגל
יעשה מ
26 ב 18 UTC עד 26 ב 20 UTC
רוח 3קשר עם כיוונים משתנים
יעשה מ
27 ב 08 UTC עד 27 ב 10 UTC
רוח 10קשר מכיוון צפון/צפון-מערב
יעשה מ
27 ב 12 UTC עד 27 ב 14 UTC
רוח 10קשר מכיוון דרום/דרום-מערב

TAF: LGTS 261700Z 2618/2718 19015KT 9999 FEW025 BECMG 2618/2620 VRB03KT BECMG 2708/2710 33010KT BECMG 2712/2714 21010KT

METAR-TAF

תצפיות ותחזיות מזג אוויר לגבי יותר מ- 4,000 שדות תעופה ברחבי העולם. דוחות METAR ו- TAF.

התחנות הזמינות מסומנות בנקודות צהובות ואדומות על גבי המפה.

העבר את העכבר לנקודה הצבעונית על מנת לראות את שם התחנה.

לאחר מכן, לחץ כדי לראות את תוכן ואת תחזיות מזג האוויר.

כדי לשנות את המפה: לחץ על הכפתורים הירוקים עם הפלוס השחור כדי להתקרב; על הכפתור הירוק עם המקף כדי להתרחק; או בחיצים הירוקים למפות סמוכות.


METAR-TAF: